createdAt,value
2022-11-23T00:01:17.159Z,20.40
2022-11-23T00:03:45.572Z,20.40
2022-11-23T00:06:13.926Z,20.40
2022-11-23T00:08:42.356Z,20.40
2022-11-23T00:11:10.679Z,20.40
2022-11-23T00:13:40.592Z,20.40
2022-11-23T00:16:09.146Z,20.40
2022-11-23T00:18:38.643Z,20.40
2022-11-23T00:21:10.516Z,20.30
2022-11-23T00:23:38.928Z,20.30
2022-11-23T00:26:07.411Z,20.30
2022-11-23T00:28:38.766Z,20.30
2022-11-23T00:31:07.261Z,20.30
2022-11-23T00:33:35.502Z,20.30
2022-11-23T00:36:07.153Z,20.30
2022-11-23T00:38:35.290Z,20.30
2022-11-23T00:41:05.704Z,20.30
2022-11-23T00:43:34.405Z,20.30
2022-11-23T00:46:06.909Z,20.30
2022-11-23T00:48:35.364Z,20.30
2022-11-23T00:51:07.609Z,20.30
2022-11-23T00:53:36.389Z,20.30
2022-11-23T00:56:05.428Z,20.30
2022-11-23T00:58:33.807Z,20.30
2022-11-23T01:01:04.231Z,20.30
2022-11-23T01:03:35.490Z,20.30
2022-11-23T01:06:07.963Z,20.30
2022-11-23T01:08:36.291Z,20.30
2022-11-23T01:11:06.797Z,20.30
2022-11-23T01:13:37.221Z,20.30
2022-11-23T01:16:08.333Z,20.30
2022-11-23T01:18:37.588Z,20.30
2022-11-23T01:21:07.201Z,20.30
2022-11-23T01:23:35.298Z,20.30
2022-11-23T01:26:09.021Z,20.30
2022-11-23T01:28:37.836Z,20.30
2022-11-23T01:31:07.468Z,20.30
2022-11-23T01:33:35.990Z,20.30
2022-11-23T01:36:12.146Z,20.30
2022-11-23T01:38:40.351Z,20.30
2022-11-23T01:41:09.497Z,20.30
2022-11-23T01:43:37.845Z,20.30
2022-11-23T01:46:06.974Z,20.30
2022-11-23T01:48:39.059Z,20.30
2022-11-23T01:51:12.098Z,20.30
2022-11-23T01:53:42.582Z,20.30
2022-11-23T01:56:15.398Z,20.30
2022-11-23T01:58:47.351Z,20.30
2022-11-23T02:01:15.871Z,20.30
2022-11-23T02:03:44.687Z,20.30
2022-11-23T02:06:16.358Z,20.30
2022-11-23T02:08:47.044Z,20.30
2022-11-23T02:11:16.235Z,20.30
2022-11-23T02:13:46.572Z,20.30
2022-11-23T02:16:15.390Z,20.30
2022-11-23T02:18:47.974Z,20.30
2022-11-23T02:21:16.275Z,20.30
2022-11-23T02:23:56.663Z,20.30
2022-11-23T02:26:28.797Z,20.30
2022-11-23T02:29:01.818Z,20.30
2022-11-23T02:31:32.255Z,20.30
2022-11-23T02:34:00.537Z,20.30
2022-11-23T02:36:38.494Z,20.30
2022-11-23T02:39:11.093Z,20.30
2022-11-23T02:41:43.712Z,20.30
2022-11-23T02:44:22.406Z,20.30
2022-11-23T02:46:52.054Z,20.30
2022-11-23T02:49:20.266Z,20.30
2022-11-23T02:51:48.412Z,20.30
2022-11-23T02:54:16.544Z,20.30
2022-11-23T02:56:46.214Z,20.30
2022-11-23T02:59:14.651Z,20.30
2022-11-23T03:01:47.311Z,20.30
2022-11-23T03:04:15.604Z,20.30
2022-11-23T03:06:43.849Z,20.30
2022-11-23T03:09:12.142Z,20.30
2022-11-23T03:11:40.289Z,20.30
2022-11-23T03:14:10.166Z,20.30
2022-11-23T03:16:47.648Z,20.30
2022-11-23T03:19:18.244Z,20.30
2022-11-23T03:21:46.361Z,20.30
2022-11-23T03:24:14.492Z,20.30
2022-11-23T03:26:42.756Z,20.30
2022-11-23T03:29:15.822Z,20.30
2022-11-23T03:31:44.211Z,20.30
2022-11-23T03:34:15.456Z,20.30
2022-11-23T03:36:45.154Z,20.30
2022-11-23T03:39:13.765Z,20.30
2022-11-23T03:42:00.398Z,20.30
2022-11-23T03:44:35.948Z,20.30
2022-11-23T03:47:04.269Z,20.30
2022-11-23T03:49:34.957Z,20.30
2022-11-23T03:52:05.597Z,20.30
2022-11-23T03:54:33.780Z,20.30
2022-11-23T03:57:02.069Z,20.30
2022-11-23T03:59:30.562Z,20.30
2022-11-23T04:02:00.243Z,20.30
2022-11-23T04:04:32.155Z,20.30
2022-11-23T04:07:08.874Z,20.30
2022-11-23T04:09:42.254Z,20.30
2022-11-23T04:12:33.753Z,20.30
2022-11-23T04:15:01.900Z,20.30
2022-11-23T04:17:31.538Z,20.30
2022-11-23T04:19:59.881Z,20.30
2022-11-23T04:22:28.126Z,20.30
2022-11-23T04:24:56.284Z,20.30
2022-11-23T04:27:24.466Z,20.30
2022-11-23T04:29:52.756Z,20.20
2022-11-23T04:32:21.129Z,20.20
2022-11-23T04:34:51.092Z,20.30
2022-11-23T04:37:19.322Z,20.20
2022-11-23T04:39:47.635Z,20.20
2022-11-23T04:42:26.573Z,20.30
2022-11-23T04:44:58.854Z,20.20
2022-11-23T04:47:27.319Z,20.20
2022-11-23T04:50:00.498Z,20.30
2022-11-23T04:52:28.635Z,20.20
2022-11-23T04:54:57.611Z,20.30
2022-11-23T04:57:26.021Z,20.30
2022-11-23T04:59:54.208Z,20.30
2022-11-23T05:02:24.422Z,20.30
2022-11-23T05:05:03.756Z,20.30
2022-11-23T05:07:32.239Z,20.30
2022-11-23T05:10:04.664Z,20.30
2022-11-23T05:12:34.434Z,20.30
2022-11-23T05:15:03.070Z,20.30
2022-11-23T05:17:36.497Z,20.20
2022-11-23T05:20:10.030Z,20.30
2022-11-23T05:22:42.161Z,20.30
2022-11-23T05:25:14.443Z,20.30
2022-11-23T05:27:42.673Z,20.30
2022-11-23T05:30:13.051Z,20.30
2022-11-23T05:32:42.136Z,20.30
2022-11-23T05:35:13.075Z,20.30
2022-11-23T05:37:41.220Z,20.20
2022-11-23T05:40:13.018Z,20.30
2022-11-23T05:42:41.893Z,20.20
2022-11-23T05:45:16.192Z,20.20
2022-11-23T05:47:51.490Z,20.30
2022-11-23T05:50:27.891Z,20.30
2022-11-23T05:53:15.968Z,20.30
2022-11-23T05:55:47.187Z,20.30
2022-11-23T05:58:15.431Z,20.20
2022-11-23T06:00:43.947Z,20.30
2022-11-23T06:03:12.057Z,20.30
2022-11-23T06:05:42.553Z,20.30
2022-11-23T06:08:10.673Z,20.30
2022-11-23T06:10:40.294Z,20.30
2022-11-23T06:13:08.417Z,20.30
2022-11-23T06:15:36.716Z,20.30
2022-11-23T06:18:05.168Z,20.30
2022-11-23T06:20:46.083Z,20.30
2022-11-23T06:23:14.200Z,20.30
2022-11-23T06:25:42.369Z,20.30
2022-11-23T06:28:21.105Z,20.30
2022-11-23T06:30:50.752Z,20.30
2022-11-23T06:33:19.011Z,20.30
2022-11-23T06:35:58.108Z,20.30
2022-11-23T06:38:30.548Z,20.30
2022-11-23T06:41:11.045Z,20.30
2022-11-23T06:43:41.208Z,20.30
2022-11-23T06:46:09.327Z,20.30
2022-11-23T06:48:44.011Z,20.30
2022-11-23T06:51:15.165Z,20.30
2022-11-23T06:53:44.450Z,20.20
2022-11-23T06:56:14.661Z,20.20
2022-11-23T06:58:43.469Z,20.20
2022-11-23T07:01:17.724Z,20.20
2022-11-23T07:03:53.548Z,20.20
2022-11-23T07:06:33.962Z,20.20
2022-11-23T07:09:07.560Z,20.20
2022-11-23T07:11:49.621Z,20.20
2022-11-23T07:14:18.452Z,20.20
2022-11-23T07:16:48.950Z,20.20
2022-11-23T07:19:17.190Z,20.20
2022-11-23T07:21:48.158Z,20.20
2022-11-23T07:24:17.194Z,20.20
2022-11-23T07:26:45.316Z,20.20
2022-11-23T07:29:13.672Z,20.20
2022-11-23T07:31:41.878Z,20.20
2022-11-23T07:34:11.232Z,20.20
2022-11-23T07:36:39.504Z,20.20
2022-11-23T07:39:09.482Z,20.20
2022-11-23T07:41:38.091Z,20.20
2022-11-23T07:44:09.578Z,20.20
2022-11-23T07:46:37.661Z,20.30
2022-11-23T07:49:05.951Z,20.30
2022-11-23T07:51:35.072Z,20.30
2022-11-23T07:54:03.178Z,20.30
2022-11-23T07:56:32.719Z,20.30
2022-11-23T07:59:00.934Z,20.30
2022-11-23T08:01:29.190Z,20.40
2022-11-23T08:03:57.349Z,20.40
2022-11-23T08:06:25.486Z,20.40
2022-11-23T08:08:55.596Z,20.40
2022-11-23T08:11:23.747Z,20.40
2022-11-23T08:13:53.241Z,20.40
2022-11-23T08:16:21.364Z,20.40
2022-11-23T08:18:50.759Z,20.50
2022-11-23T08:21:20.132Z,20.50
2022-11-23T08:23:48.262Z,20.50
2022-11-23T08:26:16.425Z,20.60
2022-11-23T08:28:44.764Z,20.60
2022-11-23T08:31:15.464Z,20.60
2022-11-23T08:33:43.655Z,20.60
2022-11-23T08:36:11.789Z,20.60
2022-11-23T08:38:39.917Z,20.60
2022-11-23T08:41:08.087Z,20.60
2022-11-23T08:43:36.420Z,20.60
2022-11-23T08:46:10.729Z,20.60
2022-11-23T08:48:40.723Z,20.60
2022-11-23T08:51:09.550Z,20.60
2022-11-23T08:53:37.837Z,20.60
2022-11-23T08:56:07.544Z,20.60
2022-11-23T08:58:36.762Z,20.60
2022-11-23T09:01:09.258Z,20.60
2022-11-23T09:03:37.515Z,20.60
2022-11-23T09:06:07.238Z,20.60
2022-11-23T09:08:35.819Z,20.60
2022-11-23T09:11:05.301Z,20.60
2022-11-23T09:13:33.482Z,20.60
2022-11-23T09:16:02.603Z,20.60
2022-11-23T09:18:31.671Z,20.60
2022-11-23T09:20:59.995Z,20.60
2022-11-23T09:23:29.499Z,20.70
2022-11-23T09:25:59.968Z,20.70
2022-11-23T09:28:28.898Z,20.70
2022-11-23T09:30:57.525Z,20.70
2022-11-23T09:33:26.518Z,20.70
2022-11-23T09:35:59.064Z,20.70
2022-11-23T09:38:51.599Z,20.70
2022-11-23T09:41:41.055Z,20.70
2022-11-23T09:44:19.366Z,20.80
2022-11-23T09:47:04.792Z,20.80
2022-11-23T09:49:38.990Z,20.80
2022-11-23T09:52:15.619Z,20.80
2022-11-23T09:54:46.488Z,20.90
2022-11-23T09:57:20.704Z,20.90
2022-11-23T09:59:53.703Z,21.00
2022-11-23T10:02:24.257Z,21.00
2022-11-23T10:04:53.507Z,21.00
2022-11-23T10:07:46.975Z,21.10
2022-11-23T10:10:28.016Z,21.20
2022-11-23T10:13:07.098Z,21.20
2022-11-23T10:15:40.492Z,21.30
2022-11-23T10:18:29.543Z,21.40
2022-11-23T10:21:05.106Z,21.40
2022-11-23T10:23:48.107Z,21.60
2022-11-23T10:26:19.245Z,21.60
2022-11-23T10:28:49.136Z,21.80
2022-11-23T10:31:18.766Z,21.90
2022-11-23T10:33:55.326Z,22.00
2022-11-23T10:36:23.604Z,22.20
2022-11-23T10:38:55.551Z,22.30
2022-11-23T10:41:23.649Z,22.40
2022-11-23T10:44:00.016Z,22.50
2022-11-23T10:46:33.019Z,22.70
2022-11-23T10:49:16.587Z,22.80
2022-11-23T10:51:55.290Z,22.80
2022-11-23T10:54:33.694Z,22.90
2022-11-23T10:57:20.994Z,22.90
2022-11-23T10:59:59.356Z,23.00
2022-11-23T11:02:28.209Z,23.00
2022-11-23T11:05:35.506Z,23.10
2022-11-23T11:08:16.916Z,23.10
2022-11-23T11:10:50.045Z,23.20
2022-11-23T11:13:24.801Z,23.20
2022-11-23T11:15:56.228Z,23.20
2022-11-23T11:18:28.766Z,23.20
2022-11-23T11:21:00.356Z,23.20
2022-11-23T11:23:31.285Z,23.20
2022-11-23T11:26:20.173Z,23.20
2022-11-23T11:28:51.462Z,23.20
2022-11-23T11:31:47.664Z,23.30
2022-11-23T11:34:24.911Z,23.30
2022-11-23T11:36:59.759Z,23.30
2022-11-23T11:39:35.048Z,23.40
2022-11-23T11:42:07.114Z,23.40
2022-11-23T11:44:41.410Z,23.40
2022-11-23T11:47:22.536Z,23.50
2022-11-23T11:49:55.358Z,23.50
2022-11-23T11:52:27.088Z,23.50
2022-11-23T11:55:03.945Z,23.50
2022-11-23T11:57:36.439Z,23.60
2022-11-23T12:00:11.332Z,23.60
2022-11-23T12:02:50.665Z,23.60
2022-11-23T12:05:25.320Z,23.60
2022-11-23T12:08:02.462Z,23.60
2022-11-23T12:10:37.767Z,23.70
2022-11-23T12:13:06.233Z,23.70
2022-11-23T12:15:49.496Z,23.70
2022-11-23T12:18:35.768Z,23.60
2022-11-23T12:21:05.589Z,23.70
2022-11-23T12:23:50.297Z,23.70
2022-11-23T12:26:25.414Z,23.70
2022-11-23T12:29:19.213Z,23.70
2022-11-23T12:31:50.793Z,23.70
2022-11-23T12:34:42.361Z,23.70
2022-11-23T12:37:30.878Z,23.70
2022-11-23T12:40:18.080Z,23.70
2022-11-23T12:42:49.602Z,23.70
2022-11-23T12:45:31.915Z,23.80
2022-11-23T12:48:15.435Z,23.80
2022-11-23T12:50:54.535Z,23.80
2022-11-23T12:53:34.185Z,23.80
2022-11-23T12:56:13.645Z,23.90
2022-11-23T12:58:43.879Z,23.90
2022-11-23T13:01:15.266Z,23.90
2022-11-23T13:04:11.042Z,24.00
2022-11-23T13:10:08.025Z,24.00
2022-11-23T13:12:52.966Z,24.00
2022-11-23T13:15:38.364Z,24.00
2022-11-23T13:18:14.644Z,23.90
2022-11-23T13:21:03.727Z,23.90
2022-11-23T13:23:38.834Z,23.90
2022-11-23T13:26:25.634Z,23.90
2022-11-23T13:28:56.770Z,23.90
2022-11-23T13:31:27.761Z,23.80
2022-11-23T13:33:57.458Z,23.80
2022-11-23T13:40:05.082Z,23.80
2022-11-23T13:42:35.608Z,23.70
2022-11-23T13:45:29.022Z,23.70
2022-11-23T13:51:06.935Z,23.70
2022-11-23T13:53:37.084Z,23.70
2022-11-23T13:56:31.901Z,23.60
2022-11-23T13:59:20.895Z,23.60
2022-11-23T14:02:17.570Z,23.60
2022-11-23T14:04:48.270Z,23.50
2022-11-23T14:07:20.472Z,23.50
2022-11-23T14:09:52.698Z,23.60
2022-11-23T14:12:33.698Z,23.60
2022-11-23T14:15:09.344Z,23.60
2022-11-23T14:18:18.692Z,23.60
2022-11-23T14:21:08.833Z,23.60
2022-11-23T14:24:24.837Z,23.60
2022-11-23T14:27:30.710Z,23.60
2022-11-23T14:30:05.387Z,23.60
2022-11-23T14:32:48.780Z,23.50
2022-11-23T14:35:25.863Z,23.50
2022-11-23T14:38:15.528Z,23.50
2022-11-23T14:40:54.153Z,23.50
2022-11-23T14:43:23.113Z,23.50
2022-11-23T14:45:53.153Z,23.50
2022-11-23T14:48:22.081Z,23.50
2022-11-23T14:50:57.522Z,23.40
2022-11-23T14:53:29.625Z,23.40
2022-11-23T14:55:58.374Z,23.40
2022-11-23T14:58:29.684Z,23.40
2022-11-23T15:01:03.079Z,23.40
2022-11-23T15:06:26.403Z,23.30
2022-11-23T15:09:04.418Z,23.20
2022-11-23T15:11:35.334Z,23.20
2022-11-23T15:14:03.447Z,23.10
2022-11-23T15:16:42.521Z,23.10
2022-11-23T15:19:27.327Z,23.00
2022-11-23T15:21:55.909Z,23.00
2022-11-23T15:24:25.405Z,22.90
2022-11-23T15:26:53.972Z,22.90
2022-11-23T15:29:34.258Z,22.90
2022-11-23T15:34:56.072Z,22.90
2022-11-23T15:37:25.511Z,22.80
2022-11-23T15:39:55.947Z,22.80
2022-11-23T15:42:26.962Z,22.80
2022-11-23T15:44:56.038Z,22.80
2022-11-23T15:47:29.072Z,22.70
2022-11-23T15:50:02.548Z,22.70
2022-11-23T15:52:35.779Z,22.70
2022-11-23T15:55:09.684Z,22.70
2022-11-23T15:57:41.953Z,22.60
2022-11-23T16:00:23.725Z,22.60
2022-11-23T16:02:53.932Z,22.60
2022-11-23T16:05:24.072Z,22.50
2022-11-23T16:07:57.473Z,22.50
2022-11-23T16:10:27.645Z,22.50
2022-11-23T16:12:57.055Z,22.50
2022-11-23T16:15:42.053Z,22.40
2022-11-23T16:18:24.813Z,22.40
2022-11-23T16:20:57.549Z,22.40
2022-11-23T16:23:28.364Z,22.40
2022-11-23T16:26:00.052Z,22.30
2022-11-23T16:28:32.391Z,22.30
2022-11-23T16:31:01.264Z,22.30
2022-11-23T16:33:31.290Z,22.30
2022-11-23T16:35:59.416Z,22.30
2022-11-23T16:38:27.556Z,22.30
2022-11-23T16:40:56.378Z,22.30
2022-11-23T16:43:24.616Z,22.30
2022-11-23T16:45:52.960Z,22.30
2022-11-23T16:48:41.721Z,22.30
2022-11-23T16:51:14.381Z,22.20
2022-11-23T16:54:11.967Z,22.20
2022-11-23T16:56:32.949Z,22.20
2022-11-23T16:59:01.257Z,22.20
2022-11-23T17:01:31.224Z,22.20
2022-11-23T17:04:01.014Z,22.20
2022-11-23T17:06:29.270Z,22.10
2022-11-23T17:09:04.715Z,22.10
2022-11-23T17:11:38.522Z,22.10
2022-11-23T17:14:07.167Z,22.10
2022-11-23T17:16:35.346Z,22.10
2022-11-23T17:19:05.083Z,22.10
2022-11-23T17:21:33.214Z,22.10
2022-11-23T17:24:01.544Z,22.10
2022-11-23T17:26:36.005Z,22.10
2022-11-23T17:29:06.466Z,22.10
2022-11-23T17:31:34.663Z,22.10
2022-11-23T17:34:04.131Z,22.00
2022-11-23T17:36:32.744Z,22.00
2022-11-23T17:39:00.971Z,22.00
2022-11-23T17:41:29.148Z,22.00
2022-11-23T17:43:58.547Z,22.00
2022-11-23T17:46:27.756Z,22.00
2022-11-23T17:48:58.747Z,22.00
2022-11-23T17:51:28.295Z,22.00
2022-11-23T17:53:56.896Z,22.00
2022-11-23T17:56:26.640Z,22.00
2022-11-23T17:58:55.178Z,22.00
2022-11-23T18:01:24.007Z,22.00
2022-11-23T18:03:52.427Z,22.00
2022-11-23T18:06:22.908Z,22.00
2022-11-23T18:08:53.709Z,22.00
2022-11-23T18:11:22.864Z,22.00
2022-11-23T18:13:51.532Z,22.00
2022-11-23T18:16:20.858Z,22.00
2022-11-23T18:18:49.211Z,22.00
2022-11-23T18:21:17.867Z,22.00
2022-11-23T18:23:46.293Z,22.00
2022-11-23T18:26:19.978Z,22.00
2022-11-23T18:28:48.493Z,22.00
2022-11-23T18:31:17.052Z,21.90
2022-11-23T18:33:46.038Z,21.90
2022-11-23T18:36:14.588Z,21.90
2022-11-23T18:38:44.827Z,21.90
2022-11-23T18:41:14.430Z,21.90
2022-11-23T18:43:43.976Z,21.80
2022-11-23T18:46:12.838Z,21.90
2022-11-23T18:48:41.045Z,21.80
2022-11-23T18:51:11.857Z,21.80
2022-11-23T18:53:40.899Z,21.80
2022-11-23T18:56:10.147Z,21.80
2022-11-23T18:58:40.681Z,21.80
2022-11-23T19:01:12.759Z,21.80
2022-11-23T19:03:42.517Z,21.80
2022-11-23T19:06:13.630Z,21.70
2022-11-23T19:08:43.213Z,21.70
2022-11-23T19:11:16.315Z,21.70
2022-11-23T19:13:45.877Z,21.70
2022-11-23T19:16:17.134Z,21.70
2022-11-23T19:18:45.395Z,21.60
2022-11-23T19:21:15.375Z,21.60
2022-11-23T19:23:43.860Z,21.60
2022-11-23T19:26:12.135Z,21.60
2022-11-23T19:28:44.570Z,21.60
2022-11-23T19:31:15.532Z,21.60
2022-11-23T19:33:44.050Z,21.60
2022-11-23T19:36:14.680Z,21.60
2022-11-23T19:38:42.904Z,21.60
2022-11-23T19:41:11.462Z,21.60
2022-11-23T19:43:39.951Z,21.60
2022-11-23T19:46:10.388Z,21.60
2022-11-23T19:48:40.557Z,21.60
2022-11-23T19:51:11.819Z,21.60
2022-11-23T19:53:40.749Z,21.60
2022-11-23T19:56:12.318Z,21.60
2022-11-23T19:58:41.080Z,21.60
2022-11-23T20:01:12.038Z,21.60
2022-11-23T20:03:43.139Z,21.60
2022-11-23T20:06:15.259Z,21.60
2022-11-23T20:08:43.895Z,21.60
2022-11-23T20:11:14.032Z,21.60
2022-11-23T20:13:42.616Z,21.60
2022-11-23T20:16:14.245Z,21.60
2022-11-23T20:18:44.960Z,21.60
2022-11-23T20:21:14.546Z,21.50
2022-11-23T20:23:43.368Z,21.50
2022-11-23T20:26:14.641Z,21.50
2022-11-23T20:28:42.979Z,21.50
2022-11-23T20:31:20.065Z,21.50
2022-11-23T20:33:51.227Z,21.50
2022-11-23T20:36:20.675Z,21.50
2022-11-23T20:38:49.335Z,21.50
2022-11-23T20:41:19.936Z,21.50
2022-11-23T20:43:50.280Z,21.50
2022-11-23T20:46:38.321Z,21.50
2022-11-23T20:49:07.850Z,21.50
2022-11-23T20:51:35.976Z,21.50
2022-11-23T20:54:04.494Z,21.50
2022-11-23T20:56:33.147Z,21.50
2022-11-23T20:59:01.895Z,21.50
2022-11-23T21:01:30.224Z,21.50
2022-11-23T21:03:59.702Z,21.50
2022-11-23T21:06:32.315Z,21.50
2022-11-23T21:09:03.278Z,21.60
2022-11-23T21:11:49.205Z,21.60
2022-11-23T21:14:19.722Z,21.60
2022-11-23T21:16:53.275Z,21.60
2022-11-23T21:19:23.482Z,21.60
2022-11-23T21:21:53.592Z,21.60
2022-11-23T21:24:21.871Z,21.60
2022-11-23T21:26:50.241Z,21.60
2022-11-23T21:29:18.675Z,21.60
2022-11-23T21:31:48.567Z,21.60
2022-11-23T21:34:19.763Z,21.60
2022-11-23T21:36:48.545Z,21.60
2022-11-23T21:39:18.912Z,21.60
2022-11-23T21:41:47.737Z,21.60
2022-11-23T21:44:15.998Z,21.60
2022-11-23T21:46:44.411Z,21.60
2022-11-23T21:49:12.947Z,21.60
2022-11-23T21:51:42.685Z,21.60
2022-11-23T21:54:15.461Z,21.60
2022-11-23T21:56:46.043Z,21.50
2022-11-23T21:59:14.594Z,21.50
2022-11-23T22:01:43.211Z,21.50
2022-11-23T22:04:15.237Z,21.50
2022-11-23T22:06:45.241Z,21.60
2022-11-23T22:09:14.391Z,21.60
2022-11-23T22:11:46.296Z,21.60
2022-11-23T22:14:19.294Z,21.60
2022-11-23T22:16:49.603Z,21.50
2022-11-23T22:19:18.720Z,21.50
2022-11-23T22:21:47.349Z,21.60
2022-11-23T22:24:17.511Z,21.60
2022-11-23T22:26:47.683Z,21.60
2022-11-23T22:29:16.454Z,21.60
2022-11-23T22:31:44.878Z,21.60
2022-11-23T22:34:14.801Z,21.60
2022-11-23T22:36:43.471Z,21.50
2022-11-23T22:39:11.643Z,21.50
2022-11-23T22:41:39.922Z,21.50
2022-11-23T22:44:11.037Z,21.50
2022-11-23T22:46:39.932Z,21.50
2022-11-23T22:49:08.203Z,21.50
2022-11-23T22:51:36.380Z,21.50
2022-11-23T22:54:04.638Z,21.50
2022-11-23T22:56:32.860Z,21.50
2022-11-23T22:59:01.109Z,21.50
2022-11-23T23:01:31.592Z,21.50
2022-11-23T23:04:02.734Z,21.50
2022-11-23T23:06:34.056Z,21.50
2022-11-23T23:09:05.244Z,21.50
2022-11-23T23:11:34.510Z,21.50
2022-11-23T23:14:02.667Z,21.50
2022-11-23T23:16:32.492Z,21.50
2022-11-23T23:19:01.077Z,21.50
2022-11-23T23:21:30.126Z,21.50
2022-11-23T23:24:01.090Z,21.50
2022-11-23T23:26:29.793Z,21.40
2022-11-23T23:28:59.627Z,21.50
2022-11-23T23:31:28.235Z,21.50
2022-11-23T23:33:57.982Z,21.50
2022-11-23T23:36:26.142Z,21.40
2022-11-23T23:38:54.281Z,21.40
2022-11-23T23:41:22.622Z,21.40
2022-11-23T23:43:50.745Z,21.40
2022-11-23T23:46:19.121Z,21.40
2022-11-23T23:48:47.967Z,21.40
2022-11-23T23:51:18.935Z,21.40
2022-11-23T23:53:47.819Z,21.30
2022-11-23T23:56:17.966Z,21.30
2022-11-23T23:58:46.259Z,21.30
